sensor_id;sensor_type;location;lat;lon;timestamp;pressure;altitude;pressure_sealevel;temperature;humidity
68107;BME280;54892;47.488;19.026;2023-01-30T00:01:40;100590.25;;;-2.82;74.70
68107;BME280;54892;47.488;19.026;2023-01-30T00:04:43;100588.91;;;-2.86;74.69
68107;BME280;54892;47.488;19.026;2023-01-30T00:07:47;100587.03;;;-3.02;75.61
68107;BME280;54892;47.488;19.026;2023-01-30T00:10:50;100583.56;;;-2.93;75.31
68107;BME280;54892;47.488;19.026;2023-01-30T00:13:54;100581.44;;;-3.16;76.18
68107;BME280;54892;47.488;19.026;2023-01-30T00:16:58;100578.16;;;-3.26;76.62
68107;BME280;54892;47.488;19.026;2023-01-30T00:20:01;100578.94;;;-3.26;76.75
68107;BME280;54892;47.488;19.026;2023-01-30T00:23:04;100577.19;;;-3.25;76.91
68107;BME280;54892;47.488;19.026;2023-01-30T00:26:08;100573.94;;;-3.27;76.83
68107;BME280;54892;47.488;19.026;2023-01-30T00:29:12;100567.41;;;-3.40;77.15
68107;BME280;54892;47.488;19.026;2023-01-30T00:32:16;100565.50;;;-3.38;77.46
68107;BME280;54892;47.488;19.026;2023-01-30T00:35:19;100573.66;;;-3.24;76.94
68107;BME280;54892;47.488;19.026;2023-01-30T00:38:23;100570.69;;;-3.29;77.14
68107;BME280;54892;47.488;19.026;2023-01-30T00:41:26;100560.16;;;-3.36;77.50
68107;BME280;54892;47.488;19.026;2023-01-30T00:44:51;100566.00;;;-3.34;77.60
68107;BME280;54892;47.488;19.026;2023-01-30T00:48:11;100561.41;;;-3.40;77.80
68107;BME280;54892;47.488;19.026;2023-01-30T00:51:15;100554.56;;;-3.31;77.46
68107;BME280;54892;47.488;19.026;2023-01-30T00:54:18;100556.38;;;-3.24;77.22
68107;BME280;54892;47.488;19.026;2023-01-30T00:57:21;100549.37;;;-3.13;76.67
68107;BME280;54892;47.488;19.026;2023-01-30T01:00:25;100550.84;;;-3.11;76.32
68107;BME280;54892;47.488;19.026;2023-01-30T01:03:29;100550.53;;;-3.08;76.21
68107;BME280;54892;47.488;19.026;2023-01-30T01:06:32;100538.47;;;-2.99;75.81
68107;BME280;54892;47.488;19.026;2023-01-30T01:09:35;100543.97;;;-2.94;75.52
68107;BME280;54892;47.488;19.026;2023-01-30T01:12:38;100543.66;;;-2.99;75.51
68107;BME280;54892;47.488;19.026;2023-01-30T01:15:42;100534.63;;;-2.95;75.42
68107;BME280;54892;47.488;19.026;2023-01-30T01:18:45;100533.53;;;-2.92;75.30
68107;BME280;54892;47.488;19.026;2023-01-30T01:21:48;100529.44;;;-2.95;75.32
68107;BME280;54892;47.488;19.026;2023-01-30T01:24:52;100521.50;;;-3.01;75.66
68107;BME280;54892;47.488;19.026;2023-01-30T01:27:55;100528.44;;;-3.02;75.95
68107;BME280;54892;47.488;19.026;2023-01-30T01:31:00;100523.28;;;-3.02;76.04
68107;BME280;54892;47.488;19.026;2023-01-30T01:34:09;100516.19;;;-3.00;75.94
68107;BME280;54892;47.488;19.026;2023-01-30T01:37:12;100516.34;;;-3.01;76.06
68107;BME280;54892;47.488;19.026;2023-01-30T01:40:16;100518.63;;;-2.98;76.11
68107;BME280;54892;47.488;19.026;2023-01-30T01:43:38;100507.44;;;-3.07;76.65
68107;BME280;54892;47.488;19.026;2023-01-30T01:47:01;100511.28;;;-3.11;77.07
68107;BME280;54892;47.488;19.026;2023-01-30T01:50:04;100506.28;;;-3.13;77.40
68107;BME280;54892;47.488;19.026;2023-01-30T01:53:08;100497.87;;;-3.15;77.38
68107;BME280;54892;47.488;19.026;2023-01-30T01:56:12;100486.38;;;-3.21;77.51
68107;BME280;54892;47.488;19.026;2023-01-30T01:59:18;100484.63;;;-3.20;77.43
68107;BME280;54892;47.488;19.026;2023-01-30T02:02:24;100477.28;;;-3.33;78.07
68107;BME280;54892;47.488;19.026;2023-01-30T02:05:29;100475.81;;;-3.35;78.03
68107;BME280;54892;47.488;19.026;2023-01-30T02:08:35;100465.25;;;-3.42;78.18
68107;BME280;54892;47.488;19.026;2023-01-30T02:11:41;100459.12;;;-3.41;78.10
68107;BME280;54892;47.488;19.026;2023-01-30T02:14:45;100454.53;;;-3.56;78.48
68107;BME280;54892;47.488;19.026;2023-01-30T02:17:51;100457.31;;;-3.49;79.01
68107;BME280;54892;47.488;19.026;2023-01-30T02:21:08;100448.97;;;-3.43;78.92
68107;BME280;54892;47.488;19.026;2023-01-30T02:24:29;100447.75;;;-3.30;78.50
68107;BME280;54892;47.488;19.026;2023-01-30T02:27:50;100439.06;;;-3.29;78.35
68107;BME280;54892;47.488;19.026;2023-01-30T02:31:02;100439.53;;;-3.26;78.21
68107;BME280;54892;47.488;19.026;2023-01-30T02:34:12;100436.94;;;-3.34;78.43
68107;BME280;54892;47.488;19.026;2023-01-30T02:37:25;100430.00;;;-3.33;78.32
68107;BME280;54892;47.488;19.026;2023-01-30T02:40:35;100432.63;;;-3.25;78.27
68107;BME280;54892;47.488;19.026;2023-01-30T02:43:43;100431.66;;;-3.24;78.31
68107;BME280;54892;47.488;19.026;2023-01-30T02:46:50;100420.63;;;-3.34;78.54
68107;BME280;54892;47.488;19.026;2023-01-30T02:49:57;100410.16;;;-3.33;78.88
68107;BME280;54892;47.488;19.026;2023-01-30T02:53:01;100398.06;;;-3.32;78.68
68107;BME280;54892;47.488;19.026;2023-01-30T02:56:05;100392.41;;;-3.36;78.99
68107;BME280;54892;47.488;19.026;2023-01-30T02:59:09;100392.69;;;-3.39;79.14
68107;BME280;54892;47.488;19.026;2023-01-30T03:02:27;100388.19;;;-3.37;78.95
68107;BME280;54892;47.488;19.026;2023-01-30T03:05:37;100382.69;;;-3.42;78.80
68107;BME280;54892;47.488;19.026;2023-01-30T03:08:48;100375.19;;;-3.27;78.18
68107;BME280;54892;47.488;19.026;2023-01-30T03:11:59;100375.66;;;-3.24;77.79
68107;BME280;54892;47.488;19.026;2023-01-30T03:15:04;100379.91;;;-3.14;77.16
68107;BME280;54892;47.488;19.026;2023-01-30T03:18:13;100377.16;;;-3.21;77.66
68107;BME280;54892;47.488;19.026;2023-01-30T03:21:16;100372.97;;;-3.14;77.48
68107;BME280;54892;47.488;19.026;2023-01-30T03:24:20;100381.28;;;-3.37;78.87
68107;BME280;54892;47.488;19.026;2023-01-30T03:27:23;100382.91;;;-3.27;78.53
68107;BME280;54892;47.488;19.026;2023-01-30T03:30:26;100379.59;;;-3.46;79.36
68107;BME280;54892;47.488;19.026;2023-01-30T03:33:31;100380.53;;;-3.55;79.51
68107;BME280;54892;47.488;19.026;2023-01-30T03:36:34;100374.44;;;-3.72;79.90
68107;BME280;54892;47.488;19.026;2023-01-30T03:39:37;100366.69;;;-3.72;80.40
68107;BME280;54892;47.488;19.026;2023-01-30T03:42:40;100366.41;;;-3.95;80.71
68107;BME280;54892;47.488;19.026;2023-01-30T03:45:43;100352.63;;;-3.86;81.21
68107;BME280;54892;47.488;19.026;2023-01-30T03:48:48;100363.03;;;-3.96;81.53
68107;BME280;54892;47.488;19.026;2023-01-30T03:51:51;100352.75;;;-3.88;80.93
68107;BME280;54892;47.488;19.026;2023-01-30T03:54:55;100357.34;;;-3.73;80.50
68107;BME280;54892;47.488;19.026;2023-01-30T03:57:58;100362.75;;;-3.85;80.78
68107;BME280;54892;47.488;19.026;2023-01-30T04:01:01;100358.53;;;-3.94;80.76
68107;BME280;54892;47.488;19.026;2023-01-30T04:04:06;100348.13;;;-4.02;81.60
68107;BME280;54892;47.488;19.026;2023-01-30T04:07:09;100347.06;;;-4.00;81.67
68107;BME280;54892;47.488;19.026;2023-01-30T04:10:12;100342.28;;;-4.13;82.07
68107;BME280;54892;47.488;19.026;2023-01-30T04:13:16;100336.69;;;-4.26;82.65
68107;BME280;54892;47.488;19.026;2023-01-30T04:16:20;100331.09;;;-4.21;82.50
68107;BME280;54892;47.488;19.026;2023-01-30T04:19:24;100329.69;;;-4.16;82.52
68107;BME280;54892;47.488;19.026;2023-01-30T04:22:27;100330.59;;;-4.25;82.75
68107;BME280;54892;47.488;19.026;2023-01-30T04:25:31;100334.44;;;-4.03;82.16
68107;BME280;54892;47.488;19.026;2023-01-30T04:28:34;100328.59;;;-4.13;82.40
68107;BME280;54892;47.488;19.026;2023-01-30T04:31:38;100328.47;;;-4.03;82.03
68107;BME280;54892;47.488;19.026;2023-01-30T04:34:42;100319.66;;;-4.19;82.66
68107;BME280;54892;47.488;19.026;2023-01-30T04:37:46;100317.66;;;-4.07;82.60
68107;BME280;54892;47.488;19.026;2023-01-30T04:40:49;100312.88;;;-4.20;82.96
68107;BME280;54892;47.488;19.026;2023-01-30T04:43:52;100306.56;;;-4.07;82.97
68107;BME280;54892;47.488;19.026;2023-01-30T04:46:56;100299.97;;;-4.28;83.67
68107;BME280;54892;47.488;19.026;2023-01-30T04:50:00;100293.97;;;-4.10;83.53
68107;BME280;54892;47.488;19.026;2023-01-30T04:53:04;100292.59;;;-4.23;83.50
68107;BME280;54892;47.488;19.026;2023-01-30T04:56:07;100282.97;;;-4.13;83.28
68107;BME280;54892;47.488;19.026;2023-01-30T04:59:10;100298.72;;;-4.24;83.92
68107;BME280;54892;47.488;19.026;2023-01-30T05:02:13;100301.06;;;-4.31;84.24
68107;BME280;54892;47.488;19.026;2023-01-30T05:05:18;100290.88;;;-4.14;83.71
68107;BME280;54892;47.488;19.026;2023-01-30T05:08:21;100283.78;;;-4.12;83.44
68107;BME280;54892;47.488;19.026;2023-01-30T05:11:25;100281.81;;;-4.18;83.72
68107;BME280;54892;47.488;19.026;2023-01-30T05:14:29;100273.53;;;-4.04;83.12
68107;BME280;54892;47.488;19.026;2023-01-30T05:17:32;100277.25;;;-4.06;83.34
68107;BME280;54892;47.488;19.026;2023-01-30T05:20:36;100279.03;;;-4.25;83.50
68107;BME280;54892;47.488;19.026;2023-01-30T05:23:40;100286.53;;;-4.14;83.34
68107;BME280;54892;47.488;19.026;2023-01-30T05:26:43;100285.16;;;-4.26;83.92
68107;BME280;54892;47.488;19.026;2023-01-30T05:29:47;100278.75;;;-4.22;83.97
68107;BME280;54892;47.488;19.026;2023-01-30T05:32:50;100277.44;;;-4.26;83.94
68107;BME280;54892;47.488;19.026;2023-01-30T05:35:54;100272.16;;;-4.43;84.99
68107;BME280;54892;47.488;19.026;2023-01-30T05:38:58;100266.03;;;-4.41;85.04
68107;BME280;54892;47.488;19.026;2023-01-30T05:42:01;100267.41;;;-4.29;85.09
68107;BME280;54892;47.488;19.026;2023-01-30T05:45:05;100268.00;;;-4.35;84.93
68107;BME280;54892;47.488;19.026;2023-01-30T05:48:09;100262.81;;;-4.44;85.00
68107;BME280;54892;47.488;19.026;2023-01-30T05:51:17;100269.00;;;-4.36;84.62
68107;BME280;54892;47.488;19.026;2023-01-30T05:54:20;100264.19;;;-4.31;84.95
68107;BME280;54892;47.488;19.026;2023-01-30T05:57:23;100264.34;;;-4.33;84.42
68107;BME280;54892;47.488;19.026;2023-01-30T06:00:27;100268.75;;;-4.25;84.36
68107;BME280;54892;47.488;19.026;2023-01-30T06:03:30;100270.50;;;-4.25;84.75
68107;BME280;54892;47.488;19.026;2023-01-30T06:06:35;100272.28;;;-4.26;84.90
68107;BME280;54892;47.488;19.026;2023-01-30T06:09:38;100275.09;;;-4.11;84.38
68107;BME280;54892;47.488;19.026;2023-01-30T06:12:41;100273.78;;;-4.15;84.33
68107;BME280;54892;47.488;19.026;2023-01-30T06:15:45;100267.03;;;-4.34;85.26
68107;BME280;54892;47.488;19.026;2023-01-30T06:18:48;100266.72;;;-4.13;84.38
68107;BME280;54892;47.488;19.026;2023-01-30T06:21:53;100266.81;;;-4.23;85.18
68107;BME280;54892;47.488;19.026;2023-01-30T06:24:56;100273.53;;;-4.04;84.36
68107;BME280;54892;47.488;19.026;2023-01-30T06:27:59;100275.72;;;-3.91;83.29
68107;BME280;54892;47.488;19.026;2023-01-30T06:31:04;100268.75;;;-3.99;84.00
68107;BME280;54892;47.488;19.026;2023-01-30T06:34:09;100280.13;;;-4.09;84.77
68107;BME280;54892;47.488;19.026;2023-01-30T06:37:13;100278.50;;;-4.10;85.16
68107;BME280;54892;47.488;19.026;2023-01-30T06:40:17;100270.03;;;-3.94;84.62
68107;BME280;54892;47.488;19.026;2023-01-30T06:43:20;100261.59;;;-3.78;83.67
68107;BME280;54892;47.488;19.026;2023-01-30T06:46:23;100254.69;;;-3.70;83.57
68107;BME280;54892;47.488;19.026;2023-01-30T06:49:27;100247.44;;;-3.66;83.53
68107;BME280;54892;47.488;19.026;2023-01-30T06:52:31;100247.13;;;-3.63;84.17
68107;BME280;54892;47.488;19.026;2023-01-30T06:55:34;100244.63;;;-3.46;84.34
68107;BME280;54892;47.488;19.026;2023-01-30T06:58:38;100247.59;;;-3.16;83.73
68107;BME280;54892;47.488;19.026;2023-01-30T07:01:43;100256.03;;;-2.98;83.34
68107;BME280;54892;47.488;19.026;2023-01-30T07:04:45;100247.94;;;-2.86;83.72
68107;BME280;54892;47.488;19.026;2023-01-30T07:07:50;100236.16;;;-2.64;83.16
68107;BME280;54892;47.488;19.026;2023-01-30T07:10:54;100235.97;;;-2.46;83.13
68107;BME280;54892;47.488;19.026;2023-01-30T07:13:57;100240.47;;;-2.32;82.61
68107;BME280;54892;47.488;19.026;2023-01-30T07:17:00;100236.56;;;-2.11;82.05
68107;BME280;54892;47.488;19.026;2023-01-30T07:20:04;100240.25;;;-1.97;81.47
68107;BME280;54892;47.488;19.026;2023-01-30T07:23:09;100236.16;;;-1.83;80.80
68107;BME280;54892;47.488;19.026;2023-01-30T07:26:12;100239.00;;;-1.70;79.87
68107;BME280;54892;47.488;19.026;2023-01-30T07:29:15;100242.88;;;-1.65;79.81
68107;BME280;54892;47.488;19.026;2023-01-30T07:32:19;100233.97;;;-1.63;79.59
68107;BME280;54892;47.488;19.026;2023-01-30T07:35:22;100235.44;;;-1.60;79.40
68107;BME280;54892;47.488;19.026;2023-01-30T07:38:27;100238.34;;;-1.63;79.73
68107;BME280;54892;47.488;19.026;2023-01-30T07:41:29;100233.28;;;-1.48;78.84
68107;BME280;54892;47.488;19.026;2023-01-30T07:44:33;100230.50;;;-1.47;79.15
68107;BME280;54892;47.488;19.026;2023-01-30T07:47:36;100229.22;;;-1.43;79.14
68107;BME280;54892;47.488;19.026;2023-01-30T07:50:40;100233.69;;;-1.36;78.96
68107;BME280;54892;47.488;19.026;2023-01-30T07:53:44;100225.88;;;-1.28;78.94
68107;BME280;54892;47.488;19.026;2023-01-30T07:56:50;100220.59;;;-1.12;78.51
68107;BME280;54892;47.488;19.026;2023-01-30T07:59:54;100230.13;;;-0.89;77.07
68107;BME280;54892;47.488;19.026;2023-01-30T08:02:57;100227.84;;;-0.84;77.04
68107;BME280;54892;47.488;19.026;2023-01-30T08:06:00;100222.81;;;-0.85;77.18
68107;BME280;54892;47.488;19.026;2023-01-30T08:09:08;100227.06;;;-0.69;76.43
68107;BME280;54892;47.488;19.026;2023-01-30T08:12:10;100215.66;;;-0.60;76.20
68107;BME280;54892;47.488;19.026;2023-01-30T08:15:14;100213.28;;;-0.70;76.64
68107;BME280;54892;47.488;19.026;2023-01-30T08:18:18;100200.31;;;-0.32;75.16
68107;BME280;54892;47.488;19.026;2023-01-30T08:21:22;100175.87;;;-0.52;75.91
68107;BME280;54892;47.488;19.026;2023-01-30T08:24:27;100162.56;;;-0.49;76.12
68107;BME280;54892;47.488;19.026;2023-01-30T08:27:30;100149.84;;;-0.59;76.17
68107;BME280;54892;47.488;19.026;2023-01-30T08:30:34;100156.41;;;-0.63;76.55
68107;BME280;54892;47.488;19.026;2023-01-30T08:33:37;100157.28;;;-0.56;76.49
68107;BME280;54892;47.488;19.026;2023-01-30T08:36:40;100157.72;;;-0.52;76.87
68107;BME280;54892;47.488;19.026;2023-01-30T08:39:49;100150.84;;;-0.30;75.83
68107;BME280;54892;47.488;19.026;2023-01-30T08:42:52;100147.03;;;-0.34;75.98
68107;BME280;54892;47.488;19.026;2023-01-30T08:45:55;100154.63;;;-0.48;76.69
68107;BME280;54892;47.488;19.026;2023-01-30T08:48:58;100143.78;;;-0.36;76.34
68107;BME280;54892;47.488;19.026;2023-01-30T08:52:01;100151.12;;;-0.40;76.71
68107;BME280;54892;47.488;19.026;2023-01-30T08:55:06;100140.03;;;-0.49;77.13
68107;BME280;54892;47.488;19.026;2023-01-30T08:58:10;100144.75;;;-0.52;77.73
68107;BME280;54892;47.488;19.026;2023-01-30T09:01:14;100139.94;;;-0.40;77.39
68107;BME280;54892;47.488;19.026;2023-01-30T09:04:17;100135.28;;;-0.45;77.89
68107;BME280;54892;47.488;19.026;2023-01-30T09:07:20;100147.09;;;-0.42;77.92
68107;BME280;54892;47.488;19.026;2023-01-30T09:10:25;100142.19;;;-0.37;78.08
68107;BME280;54892;47.488;19.026;2023-01-30T09:13:29;100147.53;;;-0.24;77.54
68107;BME280;54892;47.488;19.026;2023-01-30T09:16:32;100131.19;;;-0.24;77.74
68107;BME280;54892;47.488;19.026;2023-01-30T09:19:35;100132.06;;;-0.17;77.73
68107;BME280;54892;47.488;19.026;2023-01-30T09:22:39;100126.31;;;-0.12;77.44
68107;BME280;54892;47.488;19.026;2023-01-30T09:25:44;100125.81;;;-0.23;77.67
68107;BME280;54892;47.488;19.026;2023-01-30T09:28:48;100117.91;;;-0.14;78.03
68107;BME280;54892;47.488;19.026;2023-01-30T09:31:51;100118.91;;;-0.16;78.52
68107;BME280;54892;47.488;19.026;2023-01-30T09:34:54;100113.41;;;0.09;77.32
68107;BME280;54892;47.488;19.026;2023-01-30T09:37:57;100106.97;;;0.05;77.80
68107;BME280;54892;47.488;19.026;2023-01-30T09:41:07;100105.56;;;0.03;77.73
68107;BME280;54892;47.488;19.026;2023-01-30T09:44:17;100097.56;;;0.04;77.68
68107;BME280;54892;47.488;19.026;2023-01-30T09:47:26;100100.44;;;0.09;77.08
68107;BME280;54892;47.488;19.026;2023-01-30T09:50:42;100090.41;;;0.06;77.48
68107;BME280;54892;47.488;19.026;2023-01-30T09:53:54;100070.53;;;0.13;77.25
68107;BME280;54892;47.488;19.026;2023-01-30T09:57:10;100080.66;;;0.08;77.97
68107;BME280;54892;47.488;19.026;2023-01-30T10:00:14;100073.19;;;0.20;77.37
68107;BME280;54892;47.488;19.026;2023-01-30T10:03:21;100061.13;;;0.12;77.70
68107;BME280;54892;47.488;19.026;2023-01-30T10:06:27;100057.50;;;0.07;77.86
68107;BME280;54892;47.488;19.026;2023-01-30T10:09:32;100050.87;;;0.04;78.35
68107;BME280;54892;47.488;19.026;2023-01-30T10:12:43;100039.25;;;0.22;77.64
68107;BME280;54892;47.488;19.026;2023-01-30T10:15:49;100042.47;;;0.24;77.85
68107;BME280;54892;47.488;19.026;2023-01-30T10:19:00;100034.19;;;0.35;78.03
68107;BME280;54892;47.488;19.026;2023-01-30T10:22:10;100028.34;;;0.55;77.39
68107;BME280;54892;47.488;19.026;2023-01-30T10:25:21;100020.00;;;0.88;76.54
68107;BME280;54892;47.488;19.026;2023-01-30T10:28:28;100012.09;;;1.10;75.39
68107;BME280;54892;47.488;19.026;2023-01-30T10:31:33;100009.81;;;1.28;75.18
68107;BME280;54892;47.488;19.026;2023-01-30T10:34:39;100001.28;;;1.48;73.88
68107;BME280;54892;47.488;19.026;2023-01-30T10:37:45;99990.47;;;1.37;72.89
68107;BME280;54892;47.488;19.026;2023-01-30T10:40:51;99985.63;;;1.34;73.56
68107;BME280;54892;47.488;19.026;2023-01-30T10:44:01;99976.22;;;1.33;73.38
68107;BME280;54892;47.488;19.026;2023-01-30T10:47:15;99975.25;;;1.41;73.57
68107;BME280;54892;47.488;19.026;2023-01-30T10:50:25;99953.22;;;1.37;73.15
68107;BME280;54892;47.488;19.026;2023-01-30T10:53:31;99961.66;;;1.39;73.38
68107;BME280;54892;47.488;19.026;2023-01-30T10:56:37;99949.00;;;1.29;73.72
68107;BME280;54892;47.488;19.026;2023-01-30T10:59:47;99932.03;;;1.33;73.92
68107;BME280;54892;47.488;19.026;2023-01-30T11:02:57;99918.78;;;1.28;74.09
68107;BME280;54892;47.488;19.026;2023-01-30T11:06:01;99915.22;;;1.36;73.79
68107;BME280;54892;47.488;19.026;2023-01-30T11:09:07;99914.41;;;1.29;73.82
68107;BME280;54892;47.488;19.026;2023-01-30T11:12:10;99894.59;;;1.28;73.66
68107;BME280;54892;47.488;19.026;2023-01-30T11:15:15;99891.19;;;1.27;74.17
68107;BME280;54892;47.488;19.026;2023-01-30T11:18:19;99890.00;;;1.23;74.32
68107;BME280;54892;47.488;19.026;2023-01-30T11:21:45;99887.97;;;1.25;74.52
68107;BME280;54892;47.488;19.026;2023-01-30T11:24:50;99881.22;;;1.31;74.62
68107;BME280;54892;47.488;19.026;2023-01-30T11:28:04;99869.25;;;1.43;74.13
68107;BME280;54892;47.488;19.026;2023-01-30T11:31:16;99866.66;;;1.50;73.93
68107;BME280;54892;47.488;19.026;2023-01-30T11:34:28;99852.81;;;1.56;73.93
68107;BME280;54892;47.488;19.026;2023-01-30T11:37:32;99852.03;;;1.62;74.00
68107;BME280;54892;47.488;19.026;2023-01-30T11:40:36;99840.25;;;1.66;73.71
68107;BME280;54892;47.488;19.026;2023-01-30T11:43:41;99844.44;;;1.67;73.24
68107;BME280;54892;47.488;19.026;2023-01-30T11:46:45;99839.25;;;1.67;73.39
68107;BME280;54892;47.488;19.026;2023-01-30T11:49:49;99823.03;;;1.72;73.24
68107;BME280;54892;47.488;19.026;2023-01-30T11:52:53;99812.41;;;1.67;73.48
68107;BME280;54892;47.488;19.026;2023-01-30T11:55:57;99827.03;;;1.68;73.71
68107;BME280;54892;47.488;19.026;2023-01-30T11:59:09;99817.22;;;1.63;73.96
68107;BME280;54892;47.488;19.026;2023-01-30T12:02:24;99802.81;;;1.54;74.36
68107;BME280;54892;47.488;19.026;2023-01-30T12:05:29;99810.22;;;1.57;74.45
68107;BME280;54892;47.488;19.026;2023-01-30T12:08:35;99802.00;;;1.54;74.49
68107;BME280;54892;47.488;19.026;2023-01-30T12:11:43;99801.63;;;1.50;74.64
68107;BME280;54892;47.488;19.026;2023-01-30T12:14:47;99796.22;;;1.45;74.66
68107;BME280;54892;47.488;19.026;2023-01-30T12:17:54;99798.81;;;1.45;74.67
68107;BME280;54892;47.488;19.026;2023-01-30T12:21:00;99799.81;;;1.57;74.35
68107;BME280;54892;47.488;19.026;2023-01-30T12:24:06;99792.22;;;1.49;74.70
68107;BME280;54892;47.488;19.026;2023-01-30T12:27:15;99780.81;;;1.57;75.15
68107;BME280;54892;47.488;19.026;2023-01-30T12:30:27;99760.59;;;1.52;75.95
68107;BME280;54892;47.488;19.026;2023-01-30T12:33:33;99748.41;;;1.46;77.21
68107;BME280;54892;47.488;19.026;2023-01-30T12:36:39;99739.81;;;1.45;77.46
68107;BME280;54892;47.488;19.026;2023-01-30T12:39:46;99734.78;;;1.44;77.71
68107;BME280;54892;47.488;19.026;2023-01-30T12:43:01;99743.19;;;1.46;77.79
68107;BME280;54892;47.488;19.026;2023-01-30T12:46:10;99733.41;;;1.48;77.88
68107;BME280;54892;47.488;19.026;2023-01-30T12:49:26;99734.59;;;1.52;77.39
68107;BME280;54892;47.488;19.026;2023-01-30T12:52:49;99740.78;;;1.58;77.27
68107;BME280;54892;47.488;19.026;2023-01-30T12:55:57;99747.19;;;1.62;77.52
68107;BME280;54892;47.488;19.026;2023-01-30T12:59:06;99750.78;;;1.67;77.65
68107;BME280;54892;47.488;19.026;2023-01-30T13:02:18;99756.78;;;1.75;77.31
68107;BME280;54892;47.488;19.026;2023-01-30T13:05:31;99728.94;;;1.82;76.52
68107;BME280;54892;47.488;19.026;2023-01-30T13:08:46;99723.16;;;1.73;77.33
68107;BME280;54892;47.488;19.026;2023-01-30T13:11:55;99709.31;;;1.79;77.25
68107;BME280;54892;47.488;19.026;2023-01-30T13:15:05;99723.75;;;1.82;76.55
68107;BME280;54892;47.488;19.026;2023-01-30T13:18:12;99708.72;;;1.84;76.95
68107;BME280;54892;47.488;19.026;2023-01-30T13:21:19;99697.88;;;1.87;76.37
68107;BME280;54892;47.488;19.026;2023-01-30T13:24:26;99694.91;;;1.77;76.85
68107;BME280;54892;47.488;19.026;2023-01-30T13:27:33;99699.34;;;1.70;77.39
68107;BME280;54892;47.488;19.026;2023-01-30T13:30:38;99684.75;;;1.69;76.91
68107;BME280;54892;47.488;19.026;2023-01-30T13:33:43;99693.94;;;1.64;76.61
68107;BME280;54892;47.488;19.026;2023-01-30T13:36:48;99691.34;;;1.64;76.73
68107;BME280;54892;47.488;19.026;2023-01-30T13:39:54;99688.53;;;1.66;76.42
68107;BME280;54892;47.488;19.026;2023-01-30T13:42:59;99708.34;;;1.74;76.46
68107;BME280;54892;47.488;19.026;2023-01-30T13:46:06;99694.72;;;1.72;76.18
68107;BME280;54892;47.488;19.026;2023-01-30T13:49:11;99692.31;;;1.77;75.99
68107;BME280;54892;47.488;19.026;2023-01-30T13:52:22;99692.91;;;1.79;75.62
68107;BME280;54892;47.488;19.026;2023-01-30T13:55:31;99699.91;;;1.92;75.12
68107;BME280;54892;47.488;19.026;2023-01-30T13:58:38;99677.81;;;2.08;73.27
68107;BME280;54892;47.488;19.026;2023-01-30T14:05:24;99673.84;;;1.98;73.29
68107;BME280;54892;47.488;19.026;2023-01-30T14:08:51;99681.06;;;1.96;73.40
68107;BME280;54892;47.488;19.026;2023-01-30T14:12:00;99671.88;;;1.94;73.89
68107;BME280;54892;47.488;19.026;2023-01-30T14:15:05;99679.88;;;1.92;74.23
68107;BME280;54892;47.488;19.026;2023-01-30T14:18:16;99677.22;;;1.99;73.77
68107;BME280;54892;47.488;19.026;2023-01-30T14:21:23;99676.62;;;1.97;74.07
68107;BME280;54892;47.488;19.026;2023-01-30T14:24:29;99656.25;;;1.94;74.19
68107;BME280;54892;47.488;19.026;2023-01-30T14:27:33;99678.03;;;2.00;73.67
68107;BME280;54892;47.488;19.026;2023-01-30T14:30:36;99674.06;;;1.90;75.09
68107;BME280;54892;47.488;19.026;2023-01-30T14:33:49;99697.09;;;1.87;75.85
68107;BME280;54892;47.488;19.026;2023-01-30T14:36:52;99693.72;;;1.86;76.81
68107;BME280;54892;47.488;19.026;2023-01-30T14:39:57;99697.06;;;1.93;76.71
68107;BME280;54892;47.488;19.026;2023-01-30T14:46:39;99689.91;;;1.82;77.79
68107;BME280;54892;47.488;19.026;2023-01-30T14:49:43;99687.09;;;1.83;78.34
68107;BME280;54892;47.488;19.026;2023-01-30T14:52:47;99677.91;;;1.81;78.61
68107;BME280;54892;47.488;19.026;2023-01-30T14:55:59;99685.91;;;1.86;78.21
68107;BME280;54892;47.488;19.026;2023-01-30T14:59:04;99676.09;;;1.75;79.21
68107;BME280;54892;47.488;19.026;2023-01-30T15:02:18;99682.28;;;1.80;78.32
68107;BME280;54892;47.488;19.026;2023-01-30T15:05:32;99685.31;;;1.77;78.16
68107;BME280;54892;47.488;19.026;2023-01-30T15:08:38;99684.72;;;1.75;78.41
68107;BME280;54892;47.488;19.026;2023-01-30T15:11:44;99683.16;;;1.67;78.32
68107;BME280;54892;47.488;19.026;2023-01-30T15:14:57;99683.53;;;1.64;78.80
68107;BME280;54892;47.488;19.026;2023-01-30T15:18:14;99685.34;;;1.64;79.02
68107;BME280;54892;47.488;19.026;2023-01-30T15:21:29;99690.72;;;1.69;79.06
68107;BME280;54892;47.488;19.026;2023-01-30T15:24:42;99681.94;;;1.63;79.29
68107;BME280;54892;47.488;19.026;2023-01-30T15:27:55;99690.13;;;1.67;79.15
68107;BME280;54892;47.488;19.026;2023-01-30T15:31:04;99677.75;;;1.62;79.19
68107;BME280;54892;47.488;19.026;2023-01-30T15:34:15;99681.16;;;1.63;79.15
68107;BME280;54892;47.488;19.026;2023-01-30T15:37:30;99687.56;;;1.60;79.31
68107;BME280;54892;47.488;19.026;2023-01-30T15:40:34;99695.94;;;1.69;79.21
68107;BME280;54892;47.488;19.026;2023-01-30T15:43:47;99690.56;;;1.71;79.06
68107;BME280;54892;47.488;19.026;2023-01-30T15:46:56;99692.56;;;1.69;79.02
68107;BME280;54892;47.488;19.026;2023-01-30T15:50:02;99701.53;;;1.66;79.69
68107;BME280;54892;47.488;19.026;2023-01-30T15:53:09;99697.16;;;1.66;80.41
68107;BME280;54892;47.488;19.026;2023-01-30T15:56:16;99695.59;;;1.52;82.42
68107;BME280;54892;47.488;19.026;2023-01-30T15:59:24;99706.41;;;1.42;83.55
68107;BME280;54892;47.488;19.026;2023-01-30T16:02:30;99701.59;;;1.39;83.79
68107;BME280;54892;47.488;19.026;2023-01-30T16:05:34;99709.19;;;1.41;83.93
68107;BME280;54892;47.488;19.026;2023-01-30T16:08:38;99713.81;;;1.39;84.53
68107;BME280;54892;47.488;19.026;2023-01-30T16:11:41;99701.59;;;1.39;85.08
68107;BME280;54892;47.488;19.026;2023-01-30T16:14:46;99694.78;;;1.31;85.85
68107;BME280;54892;47.488;19.026;2023-01-30T16:17:52;99674.59;;;1.33;85.90